createdAt,value
2022-10-10T00:01:31.384Z,12.20
2022-10-10T00:03:59.011Z,12.20
2022-10-10T00:06:31.764Z,12.10
2022-10-10T00:08:59.919Z,12.20
2022-10-10T00:11:26.398Z,12.20
2022-10-10T00:13:53.106Z,12.30
2022-10-10T00:16:20.247Z,12.10
2022-10-10T00:18:47.602Z,12.10
2022-10-10T00:21:14.426Z,12.10
2022-10-10T00:23:40.984Z,12.10
2022-10-10T00:26:09.288Z,12.20
2022-10-10T00:28:37.787Z,12.10
2022-10-10T00:31:09.393Z,12.10
2022-10-10T00:33:37.147Z,12.00
2022-10-10T00:36:04.759Z,12.10
2022-10-10T00:38:31.840Z,12.10
2022-10-10T00:40:58.888Z,12.10
2022-10-10T00:43:27.067Z,12.10
2022-10-10T00:45:53.946Z,12.10
2022-10-10T00:48:25.429Z,12.00
2022-10-10T00:51:05.731Z,12.10
2022-10-10T00:53:43.774Z,12.10
2022-10-10T00:56:13.013Z,12.00
2022-10-10T00:58:49.420Z,12.10
2022-10-10T01:01:16.118Z,12.20
2022-10-10T01:03:42.864Z,12.20
2022-10-10T01:06:10.033Z,12.10
2022-10-10T01:08:37.174Z,12.10
2022-10-10T01:11:55.001Z,12.10
2022-10-10T01:16:38.496Z,12.00
2022-10-10T01:26:56.262Z,12.00
2022-10-10T01:29:52.891Z,12.10
2022-10-10T01:32:53.675Z,12.10
2022-10-10T01:37:15.439Z,12.10
2022-10-10T01:40:11.470Z,12.10
2022-10-10T01:43:02.457Z,12.10
2022-10-10T01:45:30.751Z,12.10
2022-10-10T01:48:02.559Z,12.10
2022-10-10T01:50:34.872Z,12.00
2022-10-10T01:56:42.430Z,12.10
2022-10-10T02:00:08.151Z,12.20
2022-10-10T02:03:44.983Z,12.10
2022-10-10T02:06:50.753Z,12.00
2022-10-10T02:09:28.164Z,12.10
2022-10-10T02:11:57.747Z,12.10
2022-10-10T02:14:31.185Z,12.20
2022-10-10T02:17:01.959Z,12.10
2022-10-10T02:19:30.083Z,12.10
2022-10-10T02:21:57.038Z,12.10
2022-10-10T02:24:24.722Z,12.20
2022-10-10T02:27:07.667Z,12.10
2022-10-10T02:29:37.701Z,12.10
2022-10-10T02:34:17.805Z,12.10
2022-10-10T02:36:54.406Z,12.10
2022-10-10T02:39:29.453Z,12.20
2022-10-10T02:41:55.942Z,12.20
2022-10-10T02:44:24.591Z,12.20
2022-10-10T02:46:51.257Z,12.20
2022-10-10T02:49:27.306Z,12.20
2022-10-10T02:51:53.919Z,12.30
2022-10-10T02:54:20.531Z,12.20
2022-10-10T02:56:47.029Z,12.20
2022-10-10T02:59:13.514Z,12.30
2022-10-10T03:01:40.140Z,12.30
2022-10-10T03:04:06.690Z,12.20
2022-10-10T03:06:33.185Z,12.20
2022-10-10T03:08:59.720Z,12.20
2022-10-10T03:11:26.192Z,12.10
2022-10-10T03:13:52.681Z,12.20
2022-10-10T03:16:19.147Z,12.20
2022-10-10T03:18:45.743Z,12.20
2022-10-10T03:21:12.477Z,12.30
2022-10-10T03:23:39.009Z,12.20
2022-10-10T03:26:06.347Z,12.20
2022-10-10T03:28:32.915Z,12.20
2022-10-10T03:30:59.444Z,12.20
2022-10-10T03:33:25.951Z,12.20
2022-10-10T03:35:52.466Z,12.10
2022-10-10T03:38:18.937Z,12.10
2022-10-10T03:40:45.674Z,12.10
2022-10-10T03:43:14.094Z,12.10
2022-10-10T03:45:46.834Z,12.10
2022-10-10T03:48:14.228Z,12.10
2022-10-10T03:50:40.700Z,12.20
2022-10-10T03:53:07.299Z,12.20
2022-10-10T03:55:33.820Z,12.10
2022-10-10T03:58:00.310Z,12.10
2022-10-10T04:00:26.891Z,12.20
2022-10-10T04:02:53.776Z,12.10
2022-10-10T04:05:20.437Z,12.10
2022-10-10T04:07:46.938Z,12.20
2022-10-10T04:10:13.484Z,12.20
2022-10-10T04:12:40.055Z,12.20
2022-10-10T04:15:07.523Z,12.20
2022-10-10T04:17:34.064Z,12.20
2022-10-10T04:20:00.535Z,12.30
2022-10-10T04:22:27.014Z,12.30
2022-10-10T04:24:53.499Z,12.30
2022-10-10T04:27:19.992Z,12.30
2022-10-10T04:29:46.441Z,12.30
2022-10-10T04:32:12.921Z,12.40
2022-10-10T04:34:39.409Z,12.40
2022-10-10T04:37:05.880Z,12.30
2022-10-10T04:39:32.381Z,12.20
2022-10-10T04:41:58.859Z,12.20
2022-10-10T04:44:25.351Z,12.20
2022-10-10T04:46:51.836Z,12.20
2022-10-10T04:49:18.296Z,12.20
2022-10-10T04:51:44.822Z,12.20
2022-10-10T04:54:12.482Z,12.30
2022-10-10T04:56:41.708Z,12.30
2022-10-10T04:59:09.587Z,12.30
2022-10-10T05:01:36.154Z,12.30
2022-10-10T05:04:02.811Z,12.20
2022-10-10T05:06:29.284Z,12.20
2022-10-10T05:08:55.787Z,12.30
2022-10-10T05:11:22.292Z,12.40
2022-10-10T05:13:51.334Z,12.20
2022-10-10T05:16:17.974Z,12.20
2022-10-10T05:18:44.436Z,12.20
2022-10-10T05:21:11.310Z,12.20
2022-10-10T05:23:42.846Z,12.10
2022-10-10T05:26:10.261Z,12.10
2022-10-10T05:28:37.036Z,12.10
2022-10-10T05:31:05.365Z,12.10
2022-10-10T05:33:33.949Z,12.00
2022-10-10T05:36:11.536Z,11.90
2022-10-10T05:38:39.450Z,11.90
2022-10-10T05:41:08.044Z,11.90
2022-10-10T05:43:34.950Z,12.00
2022-10-10T05:46:02.565Z,12.00
2022-10-10T05:48:29.241Z,12.00
2022-10-10T05:50:58.564Z,12.00
2022-10-10T05:53:27.660Z,12.00
2022-10-10T05:55:54.482Z,12.10
2022-10-10T05:58:20.972Z,12.10
2022-10-10T06:00:48.283Z,12.10
2022-10-10T06:03:17.011Z,12.20
2022-10-10T06:05:47.660Z,12.20
2022-10-10T06:08:14.627Z,12.20
2022-10-10T06:10:44.987Z,12.30
2022-10-10T06:13:14.204Z,12.40
2022-10-10T06:15:41.169Z,12.40
2022-10-10T06:18:08.952Z,12.40
2022-10-10T06:20:37.738Z,12.50
2022-10-10T06:23:06.550Z,12.60
2022-10-10T06:25:40.504Z,12.60
2022-10-10T06:28:08.331Z,12.50
2022-10-10T06:30:39.525Z,12.60
2022-10-10T06:33:06.810Z,12.80
2022-10-10T06:35:33.270Z,12.90
2022-10-10T06:37:59.759Z,13.00
2022-10-10T06:40:26.248Z,12.90
2022-10-10T06:42:52.983Z,12.90
2022-10-10T06:45:19.767Z,12.90
2022-10-10T06:47:46.226Z,13.00
2022-10-10T06:50:12.716Z,13.00
2022-10-10T06:52:40.872Z,13.00
2022-10-10T06:55:08.036Z,13.10
2022-10-10T06:57:34.560Z,13.10
2022-10-10T07:00:01.248Z,13.10
2022-10-10T07:02:27.904Z,13.20
2022-10-10T07:04:54.355Z,13.30
2022-10-10T07:07:20.867Z,13.40
2022-10-10T07:09:47.353Z,13.60
2022-10-10T07:12:13.851Z,13.80
2022-10-10T07:14:40.319Z,13.80
2022-10-10T07:17:06.810Z,13.90
2022-10-10T07:19:35.431Z,13.90
2022-10-10T07:22:01.925Z,13.80
2022-10-10T07:24:28.468Z,13.80
2022-10-10T07:27:02.328Z,13.80
2022-10-10T07:29:30.439Z,13.90
2022-10-10T07:31:57.893Z,14.00
2022-10-10T07:34:24.726Z,14.00
2022-10-10T07:36:51.248Z,14.00
2022-10-10T07:39:22.082Z,13.90
2022-10-10T07:41:49.773Z,13.90
2022-10-10T07:44:17.067Z,13.90
2022-10-10T07:46:43.891Z,14.00
2022-10-10T07:49:10.763Z,14.00
2022-10-10T07:51:38.120Z,14.30
2022-10-10T07:54:05.871Z,14.40
2022-10-10T07:56:32.655Z,14.60
2022-10-10T07:59:00.164Z,14.60
2022-10-10T08:01:26.702Z,14.60
2022-10-10T08:03:56.359Z,14.60
2022-10-10T08:06:23.350Z,14.50
2022-10-10T08:08:51.944Z,14.60
2022-10-10T08:11:21.104Z,14.70
2022-10-10T08:13:48.636Z,14.80
2022-10-10T08:16:15.737Z,15.10
2022-10-10T08:18:42.297Z,15.20
2022-10-10T08:21:12.621Z,15.30
2022-10-10T08:23:39.840Z,15.50
2022-10-10T08:26:09.989Z,15.40
2022-10-10T08:28:37.907Z,15.40
2022-10-10T08:31:10.816Z,15.50
2022-10-10T08:33:38.220Z,15.60
2022-10-10T08:36:12.304Z,15.70
2022-10-10T08:38:39.067Z,15.90
2022-10-10T08:42:48.923Z,15.80
2022-10-10T08:45:25.842Z,15.80
2022-10-10T08:48:05.083Z,15.80
2022-10-10T08:50:39.596Z,16.10
2022-10-10T08:54:10.968Z,16.20
2022-10-10T08:56:39.165Z,16.20
2022-10-10T08:59:20.257Z,16.20
2022-10-10T09:02:17.892Z,16.30
2022-10-10T09:04:46.749Z,16.40
2022-10-10T09:08:30.718Z,16.60
2022-10-10T09:11:31.405Z,16.70
2022-10-10T09:14:48.613Z,16.90
2022-10-10T09:17:51.302Z,16.90
2022-10-10T09:21:41.249Z,16.90
2022-10-10T09:26:15.678Z,16.90
2022-10-10T09:29:02.530Z,16.80
2022-10-10T09:31:50.720Z,16.50
2022-10-10T09:35:47.578Z,16.60
2022-10-10T09:38:59.719Z,16.70
2022-10-10T09:41:46.850Z,17.00
2022-10-10T09:44:18.986Z,17.20
2022-10-10T09:46:45.518Z,17.40
2022-10-10T09:49:17.081Z,17.60
2022-10-10T09:51:45.656Z,17.70
2022-10-10T09:54:16.860Z,17.80
2022-10-10T09:56:57.850Z,17.70
2022-10-10T09:59:44.191Z,17.70
2022-10-10T10:02:26.845Z,17.70
2022-10-10T10:04:54.640Z,17.80
2022-10-10T10:07:33.445Z,17.60
2022-10-10T10:10:10.439Z,17.80
2022-10-10T10:12:42.894Z,17.90
2022-10-10T10:15:29.332Z,17.90
2022-10-10T10:18:40.048Z,17.80
2022-10-10T10:21:30.517Z,17.90
2022-10-10T10:24:17.923Z,18.20
2022-10-10T10:26:47.765Z,18.10
2022-10-10T10:29:33.522Z,18.20
2022-10-10T10:33:03.925Z,18.30
2022-10-10T10:35:47.473Z,18.10
2022-10-10T10:41:12.904Z,18.10
2022-10-10T10:46:35.943Z,18.40
2022-10-10T10:49:20.743Z,18.10
2022-10-10T10:54:19.428Z,18.20
2022-10-10T10:57:10.849Z,18.30
2022-10-10T11:01:21.103Z,18.60
2022-10-10T11:07:00.120Z,18.60
2022-10-10T11:09:56.377Z,18.50
2022-10-10T11:17:23.717Z,18.70
2022-10-10T11:20:14.582Z,18.50
2022-10-10T11:23:17.974Z,18.60
2022-10-10T11:25:59.085Z,18.70
2022-10-10T11:28:55.304Z,18.70
2022-10-10T11:32:33.019Z,18.80
2022-10-10T11:35:20.682Z,18.90
2022-10-10T11:38:09.731Z,18.90
2022-10-10T11:41:22.224Z,18.90
2022-10-10T11:44:30.717Z,18.90
2022-10-10T11:48:42.552Z,18.70
2022-10-10T11:51:34.001Z,18.70
2022-10-10T11:54:10.966Z,18.50
2022-10-10T11:56:44.121Z,18.60
2022-10-10T11:59:27.475Z,18.50
2022-10-10T12:02:00.085Z,18.60
2022-10-10T12:04:35.455Z,18.70
2022-10-10T12:07:16.063Z,18.70
2022-10-10T12:09:56.274Z,18.60
2022-10-10T12:12:34.421Z,18.50
2022-10-10T12:15:05.735Z,18.60
2022-10-10T12:17:45.175Z,18.70
2022-10-10T12:20:36.545Z,18.80
2022-10-10T12:23:29.209Z,18.80
2022-10-10T12:25:57.415Z,18.90
2022-10-10T12:28:56.967Z,18.90
2022-10-10T12:31:30.091Z,19.00
2022-10-10T12:34:10.263Z,18.90
2022-10-10T12:37:08.676Z,18.90
2022-10-10T12:39:37.578Z,18.90
2022-10-10T12:42:26.909Z,18.90
2022-10-10T12:44:53.500Z,18.90
2022-10-10T12:47:53.021Z,18.80
2022-10-10T12:50:37.469Z,18.90
2022-10-10T12:53:20.467Z,18.80
2022-10-10T12:55:52.267Z,18.80
2022-10-10T12:58:32.731Z,18.80
2022-10-10T13:01:06.062Z,18.70
2022-10-10T13:03:44.365Z,18.70
2022-10-10T13:06:39.772Z,18.80
2022-10-10T13:09:22.729Z,19.00
2022-10-10T13:12:06.848Z,18.90
2022-10-10T13:14:44.350Z,18.70
2022-10-10T13:17:30.376Z,18.60
2022-10-10T13:20:00.228Z,18.80
2022-10-10T13:22:32.778Z,18.70
2022-10-10T13:25:00.663Z,18.60
2022-10-10T13:27:34.310Z,18.60
2022-10-10T13:30:02.456Z,18.70
2022-10-10T13:32:35.198Z,18.70
2022-10-10T13:35:14.458Z,18.60
2022-10-10T13:37:49.976Z,18.60
2022-10-10T13:40:18.297Z,18.60
2022-10-10T13:42:50.341Z,18.50
2022-10-10T13:46:38.181Z,18.70
2022-10-10T13:49:29.334Z,18.70
2022-10-10T13:55:06.556Z,18.70
2022-10-10T13:57:33.067Z,18.50
2022-10-10T14:00:06.658Z,18.50
2022-10-10T14:02:37.054Z,18.70
2022-10-10T14:05:35.509Z,18.80
2022-10-10T14:08:02.079Z,18.80
2022-10-10T14:10:36.684Z,18.60
2022-10-10T14:13:03.276Z,18.50
2022-10-10T14:15:51.006Z,18.50
2022-10-10T14:18:25.167Z,18.60
2022-10-10T14:20:55.755Z,18.70
2022-10-10T14:23:22.335Z,18.50
2022-10-10T14:25:50.015Z,18.60
2022-10-10T14:28:25.583Z,18.70
2022-10-10T14:30:52.126Z,18.70
2022-10-10T14:33:20.368Z,18.60
2022-10-10T14:35:50.175Z,18.60
2022-10-10T14:38:16.801Z,18.40
2022-10-10T14:40:48.642Z,18.30
2022-10-10T14:43:24.798Z,18.30
2022-10-10T14:45:53.297Z,18.40
2022-10-10T14:48:20.537Z,18.30
2022-10-10T14:50:48.680Z,18.20
2022-10-10T14:53:16.006Z,18.30
2022-10-10T14:55:42.814Z,18.30
2022-10-10T14:58:22.426Z,18.20
2022-10-10T15:00:51.325Z,18.20
2022-10-10T15:03:17.908Z,18.20
2022-10-10T15:05:44.457Z,18.10
2022-10-10T15:08:16.965Z,18.00
2022-10-10T15:10:44.251Z,17.90
2022-10-10T15:13:14.013Z,17.80
2022-10-10T15:15:40.540Z,17.80
2022-10-10T15:18:25.670Z,17.80
2022-10-10T15:21:14.413Z,17.80
2022-10-10T15:23:41.146Z,17.70
2022-10-10T15:26:07.852Z,17.60
2022-10-10T15:28:34.480Z,17.50
2022-10-10T15:31:01.830Z,17.50
2022-10-10T15:33:28.451Z,17.40
2022-10-10T15:36:09.494Z,17.40
2022-10-10T15:38:37.342Z,17.20
2022-10-10T15:41:08.227Z,17.20
2022-10-10T15:43:51.255Z,17.10
2022-10-10T15:46:20.106Z,17.00
2022-10-10T15:48:46.626Z,17.00
2022-10-10T15:51:13.454Z,16.80
2022-10-10T15:53:40.212Z,16.70
2022-10-10T15:56:15.460Z,16.60
2022-10-10T15:58:42.798Z,16.60
2022-10-10T16:01:18.288Z,16.40
2022-10-10T16:03:47.485Z,16.30
2022-10-10T16:06:16.078Z,16.20
2022-10-10T16:08:43.932Z,16.10
2022-10-10T16:11:14.205Z,15.90
2022-10-10T16:13:42.693Z,15.80
2022-10-10T16:16:11.107Z,15.70
2022-10-10T16:18:40.607Z,15.50
2022-10-10T16:21:20.856Z,15.40
2022-10-10T16:23:53.115Z,15.40
2022-10-10T16:26:26.909Z,15.30
2022-10-10T16:28:55.434Z,15.30
2022-10-10T16:31:22.139Z,15.30
2022-10-10T16:33:49.165Z,15.40
2022-10-10T16:36:22.609Z,15.30
2022-10-10T16:38:50.260Z,15.30
2022-10-10T16:41:42.465Z,15.40
2022-10-10T16:44:12.799Z,15.20
2022-10-10T16:46:39.289Z,15.10
2022-10-10T16:49:05.750Z,15.00
2022-10-10T16:51:32.245Z,14.90
2022-10-10T16:54:04.374Z,14.80
2022-10-10T16:56:30.977Z,14.70
2022-10-10T16:59:01.012Z,14.70
2022-10-10T17:01:27.928Z,14.60
2022-10-10T17:03:57.098Z,14.50
2022-10-10T17:06:23.583Z,14.50
2022-10-10T17:08:56.079Z,14.50
2022-10-10T17:11:24.803Z,14.50
2022-10-10T17:13:51.704Z,14.40
2022-10-10T17:17:06.538Z,14.40
2022-10-10T17:19:37.396Z,14.40
2022-10-10T17:22:03.890Z,14.30
2022-10-10T17:24:30.354Z,14.30
2022-10-10T17:26:56.863Z,14.30
2022-10-10T17:29:24.012Z,14.30
2022-10-10T17:31:50.534Z,14.30
2022-10-10T17:34:17.025Z,14.30
2022-10-10T17:36:43.509Z,14.30
2022-10-10T17:39:09.998Z,14.30
2022-10-10T17:41:36.509Z,14.30
2022-10-10T17:44:05.002Z,14.30
2022-10-10T17:46:35.850Z,14.30
2022-10-10T17:49:05.259Z,14.30
2022-10-10T17:51:33.077Z,14.30
2022-10-10T17:54:00.936Z,14.20
2022-10-10T17:56:27.615Z,14.20
2022-10-10T17:58:54.302Z,14.10
2022-10-10T18:01:21.433Z,14.10
2022-10-10T18:03:48.208Z,14.10
2022-10-10T18:06:18.237Z,14.10
2022-10-10T18:08:47.330Z,14.10
2022-10-10T18:11:17.046Z,14.00
2022-10-10T18:13:44.004Z,13.90
2022-10-10T18:16:21.369Z,13.80
2022-10-10T18:18:51.582Z,13.70
2022-10-10T18:21:21.939Z,13.70
2022-10-10T18:23:49.273Z,13.60
2022-10-10T18:26:25.957Z,13.60
2022-10-10T18:28:55.095Z,13.50
2022-10-10T18:31:26.329Z,13.40
2022-10-10T18:33:53.420Z,13.40
2022-10-10T18:36:24.353Z,13.40
2022-10-10T18:38:51.135Z,13.30
2022-10-10T18:41:21.583Z,13.30
2022-10-10T18:43:49.696Z,13.40
2022-10-10T18:46:19.993Z,13.30
2022-10-10T18:48:50.291Z,13.30
2022-10-10T18:51:26.133Z,13.40
2022-10-10T18:54:00.071Z,13.50
2022-10-10T18:56:26.927Z,13.40
2022-10-10T18:59:00.339Z,13.30
2022-10-10T19:01:29.508Z,13.20
2022-10-10T19:03:56.596Z,13.10
2022-10-10T19:06:25.267Z,13.10
2022-10-10T19:08:56.179Z,13.10
2022-10-10T19:11:32.936Z,13.00
2022-10-10T19:14:03.240Z,12.90
2022-10-10T19:16:30.187Z,12.90
2022-10-10T19:18:59.064Z,12.70
2022-10-10T19:21:28.608Z,12.40
2022-10-10T19:23:55.372Z,12.30
2022-10-10T19:26:22.271Z,12.30
2022-10-10T19:28:48.755Z,12.30
2022-10-10T19:31:18.601Z,12.30
2022-10-10T19:33:51.022Z,12.30
2022-10-10T19:36:17.575Z,12.20
2022-10-10T19:38:44.072Z,12.20
2022-10-10T19:41:13.480Z,12.30
2022-10-10T19:43:41.789Z,12.40
2022-10-10T19:46:12.367Z,12.50
2022-10-10T19:48:39.515Z,12.40
2022-10-10T19:51:15.153Z,12.40
2022-10-10T19:53:43.034Z,12.40
2022-10-10T19:56:25.570Z,12.30
2022-10-10T19:58:58.245Z,12.30
2022-10-10T20:01:29.541Z,12.20
2022-10-10T20:03:57.667Z,12.00
2022-10-10T20:06:24.478Z,12.10
2022-10-10T20:08:51.063Z,12.00
2022-10-10T20:11:19.422Z,12.10
2022-10-10T20:13:46.095Z,12.00
2022-10-10T20:16:13.571Z,12.10
2022-10-10T20:18:42.205Z,12.00
2022-10-10T20:21:23.895Z,11.90
2022-10-10T20:23:51.053Z,11.80
2022-10-10T20:26:22.830Z,11.70
2022-10-10T20:28:50.736Z,11.70
2022-10-10T20:31:26.910Z,11.70
2022-10-10T20:34:02.574Z,11.70
2022-10-10T20:36:31.557Z,11.70
2022-10-10T20:39:11.535Z,11.60
2022-10-10T20:41:40.405Z,11.40
2022-10-10T20:44:10.800Z,11.30
2022-10-10T20:46:40.660Z,11.30
2022-10-10T20:49:15.055Z,11.20
2022-10-10T20:51:41.566Z,11.10
2022-10-10T20:54:10.330Z,11.10
2022-10-10T20:56:36.789Z,11.20
2022-10-10T20:59:03.470Z,11.20
2022-10-10T21:01:30.720Z,11.00
2022-10-10T21:03:57.981Z,11.00
2022-10-10T21:06:32.026Z,11.00
2022-10-10T21:09:02.726Z,11.00
2022-10-10T21:11:29.432Z,11.10
2022-10-10T21:13:59.052Z,11.10
2022-10-10T21:16:33.183Z,11.10
2022-10-10T21:19:01.007Z,11.20
2022-10-10T21:21:33.881Z,11.30
2022-10-10T21:24:02.976Z,11.20
2022-10-10T21:26:30.496Z,11.20
2022-10-10T21:28:58.413Z,11.10
2022-10-10T21:31:36.162Z,10.90
2022-10-10T21:34:05.641Z,10.90
2022-10-10T21:36:34.090Z,10.90
2022-10-10T21:39:01.574Z,10.80
2022-10-10T21:41:28.255Z,10.60
2022-10-10T21:43:58.914Z,10.60
2022-10-10T21:46:33.585Z,10.50
2022-10-10T21:49:07.096Z,10.50
2022-10-10T21:51:44.722Z,10.50
2022-10-10T21:54:11.680Z,10.50
2022-10-10T21:56:39.053Z,10.50
2022-10-10T21:59:05.904Z,10.50
2022-10-10T22:01:32.977Z,10.40
2022-10-10T22:04:01.178Z,10.50
2022-10-10T22:06:28.000Z,10.50
2022-10-10T22:08:58.248Z,10.50
2022-10-10T22:11:27.763Z,10.40
2022-10-10T22:13:54.311Z,10.30
2022-10-10T22:16:21.427Z,10.20
2022-10-10T22:18:52.677Z,10.10
2022-10-10T22:21:19.301Z,10.00
2022-10-10T22:23:45.783Z,10.00
2022-10-10T22:26:16.038Z,10.00
2022-10-10T22:28:44.409Z,10.00
2022-10-10T22:31:14.486Z,10.10
2022-10-10T22:33:41.287Z,10.00
2022-10-10T22:36:09.661Z,10.10
2022-10-10T22:38:39.426Z,10.10
2022-10-10T22:41:06.238Z,10.10
2022-10-10T22:43:33.034Z,10.20
2022-10-10T22:45:59.572Z,10.10
2022-10-10T22:48:26.724Z,10.10
2022-10-10T22:51:10.040Z,10.00
2022-10-10T22:53:38.066Z,10.10
2022-10-10T22:56:05.634Z,10.20
2022-10-10T22:58:32.332Z,10.40
2022-10-10T23:01:08.818Z,10.60
2022-10-10T23:03:35.372Z,10.60
2022-10-10T23:06:02.591Z,10.60
2022-10-10T23:08:29.431Z,10.70
2022-10-10T23:10:59.702Z,10.80
2022-10-10T23:13:26.609Z,10.90
2022-10-10T23:15:53.973Z,10.90
2022-10-10T23:18:20.550Z,11.00
2022-10-10T23:20:48.631Z,11.00
2022-10-10T23:23:17.608Z,10.90
2022-10-10T23:25:46.685Z,10.80
2022-10-10T23:28:16.396Z,10.70
2022-10-10T23:30:45.876Z,10.60
2022-10-10T23:33:14.510Z,10.50
2022-10-10T23:35:41.316Z,10.40
2022-10-10T23:38:08.055Z,10.30
2022-10-10T23:40:34.521Z,10.10
2022-10-10T23:43:01.118Z,9.90
2022-10-10T23:45:27.775Z,9.80
2022-10-10T23:47:54.271Z,9.80
2022-10-10T23:50:20.738Z,9.70
2022-10-10T23:52:47.266Z,9.70
2022-10-10T23:55:13.749Z,9.70
2022-10-10T23:57:40.251Z,9.80
